createdAt,value
2016-12-30T00:00:45.654Z,72.62
2016-12-30T00:01:56.394Z,72.43
2016-12-30T00:03:06.338Z,72.62
2016-12-30T00:04:16.686Z,72.33
2016-12-30T00:05:27.019Z,72.43
2016-12-30T00:06:37.370Z,72.62
2016-12-30T00:07:47.380Z,72.43
2016-12-30T00:08:57.326Z,72.33
2016-12-30T00:10:08.073Z,72.52
2016-12-30T00:11:18.004Z,72.62
2016-12-30T00:12:28.359Z,72.52
2016-12-30T00:13:39.109Z,72.33
2016-12-30T00:14:49.860Z,72.52
2016-12-30T00:16:00.587Z,72.71
2016-12-30T00:17:11.314Z,72.43
2016-12-30T00:18:21.281Z,72.43
2016-12-30T00:19:31.637Z,72.33
2016-12-30T00:20:41.978Z,72.62
2016-12-30T00:21:52.325Z,72.71
2016-12-30T00:23:02.673Z,72.33
2016-12-30T00:24:13.010Z,72.52
2016-12-30T00:25:22.970Z,72.62
2016-12-30T00:26:33.327Z,72.52
2016-12-30T00:27:43.278Z,72.33
2016-12-30T00:28:54.000Z,72.33
2016-12-30T00:30:04.353Z,72.33
2016-12-30T00:31:15.084Z,72.33
2016-12-30T00:32:25.816Z,72.71
2016-12-30T00:33:36.183Z,72.71
2016-12-30T00:34:46.924Z,72.24
2016-12-30T00:35:57.656Z,72.71
2016-12-30T00:37:07.638Z,72.33
2016-12-30T00:38:17.990Z,72.52
2016-12-30T00:39:28.737Z,72.71
2016-12-30T00:40:39.466Z,72.43
2016-12-30T00:41:50.236Z,72.33
2016-12-30T00:43:00.215Z,72.43
2016-12-30T00:44:10.554Z,72.43
2016-12-30T00:45:20.889Z,72.62
2016-12-30T00:46:31.630Z,72.33
2016-12-30T00:47:41.974Z,72.43
2016-12-30T00:48:51.539Z,72.43
2016-12-30T00:50:02.311Z,72.43
2016-12-30T00:51:13.043Z,72.43
2016-12-30T00:52:23.780Z,72.43
2016-12-30T00:53:34.528Z,73.09
2016-12-30T00:54:45.270Z,72.99
2016-12-30T00:55:55.619Z,72.99
2016-12-30T00:57:06.352Z,72.99
2016-12-30T00:58:17.099Z,72.99
2016-12-30T00:59:27.879Z,72.99
2016-12-30T01:00:38.637Z,72.99
2016-12-30T01:01:49.363Z,73.09
2016-12-30T01:02:59.733Z,72.99
2016-12-30T01:04:10.466Z,73.09
2016-12-30T01:05:20.805Z,72.99
2016-12-30T01:06:31.155Z,72.99
2016-12-30T01:07:41.898Z,73.09
2016-12-30T01:08:52.239Z,72.9
2016-12-30T01:10:02.970Z,72.9
2016-12-30T01:11:12.932Z,73.18
2016-12-30T01:12:22.893Z,72.62
2016-12-30T01:13:33.622Z,72.62
2016-12-30T01:14:43.580Z,72.71
2016-12-30T01:15:53.923Z,72.33
2016-12-30T01:17:03.476Z,72.43
2016-12-30T01:18:13.856Z,72.43
2016-12-30T01:19:24.183Z,72.43
2016-12-30T01:20:33.734Z,72.43
2016-12-30T01:21:44.461Z,72.52
2016-12-30T01:22:54.807Z,72.62
2016-12-30T01:24:05.175Z,72.62
2016-12-30T01:25:15.522Z,72.52
2016-12-30T01:26:26.108Z,72.9
2016-12-30T01:27:36.844Z,73.18
2016-12-30T01:28:47.178Z,72.71
2016-12-30T01:29:57.914Z,73.18
2016-12-30T01:31:08.641Z,73.18
2016-12-30T01:32:18.991Z,72.62
2016-12-30T01:33:29.748Z,73.09
2016-12-30T01:34:40.092Z,72.71
2016-12-30T01:35:50.836Z,72.71
2016-12-30T01:37:01.179Z,72.43
2016-12-30T01:38:11.903Z,72.99
2016-12-30T01:39:22.638Z,72.9
2016-12-30T01:40:32.585Z,73.28
2016-12-30T01:41:42.930Z,72.99
2016-12-30T01:42:52.888Z,73.28
2016-12-30T01:44:03.231Z,72.9
2016-12-30T01:45:13.577Z,72.9
2016-12-30T01:46:24.314Z,72.99
2016-12-30T01:47:34.648Z,72.8
2016-12-30T01:48:44.988Z,72.8
2016-12-30T01:49:55.332Z,72.62
2016-12-30T01:51:06.076Z,73.18
2016-12-30T01:52:16.416Z,72.62
2016-12-30T01:53:27.168Z,72.62
2016-12-30T01:54:37.909Z,72.52
2016-12-30T01:55:48.246Z,72.71
2016-12-30T01:56:58.203Z,72.9
2016-12-30T01:58:08.949Z,72.52
2016-12-30T01:59:19.295Z,72.52
2016-12-30T02:00:30.048Z,72.33
2016-12-30T02:01:39.998Z,72.52
2016-12-30T02:02:50.750Z,72.52
2016-12-30T02:04:01.088Z,72.9
2016-12-30T02:05:11.461Z,73.09
2016-12-30T02:06:21.432Z,72.62
2016-12-30T02:07:31.775Z,72.62
2016-12-30T02:08:42.130Z,72.52
2016-12-30T02:09:52.481Z,72.43
2016-12-30T02:11:03.203Z,72.43
2016-12-30T02:12:13.934Z,72.43
2016-12-30T02:13:24.672Z,72.43
2016-12-30T02:14:35.402Z,72.33
2016-12-30T02:15:45.358Z,72.43
2016-12-30T02:16:55.318Z,72.62
2016-12-30T02:18:06.059Z,72.33
2016-12-30T02:19:16.795Z,72.43
2016-12-30T02:20:27.537Z,72.33
2016-12-30T02:21:38.298Z,72.43
2016-12-30T02:22:48.655Z,72.43
2016-12-30T02:23:59.395Z,72.43
2016-12-30T02:25:09.763Z,72.43
2016-12-30T02:26:20.508Z,72.43
2016-12-30T02:27:30.886Z,72.62
2016-12-30T02:28:41.263Z,72.62
2016-12-30T02:29:51.217Z,72.33
2016-12-30T02:31:01.160Z,72.62
2016-12-30T02:32:11.900Z,72.43
2016-12-30T02:33:22.246Z,72.43
2016-12-30T02:34:32.582Z,72.43
2016-12-30T02:35:42.935Z,72.39
2016-12-30T02:36:53.268Z,72.43
2016-12-30T02:38:03.209Z,72.62
2016-12-30T02:39:13.553Z,72.3
2016-12-30T02:40:24.283Z,72.39
2016-12-30T02:41:34.255Z,72.62
2016-12-30T02:42:44.594Z,72.3
2016-12-30T02:43:54.958Z,72.62
2016-12-30T02:45:04.912Z,72.3
2016-12-30T02:46:15.637Z,72.71
2016-12-30T02:47:25.978Z,72.39
2016-12-30T02:48:36.697Z,72.62
2016-12-30T02:49:46.651Z,72.43
2016-12-30T02:50:57.379Z,72.52
2016-12-30T02:52:07.328Z,72.2
2016-12-30T02:53:18.066Z,72.3
2016-12-30T02:54:28.793Z,72.39
2016-12-30T02:55:39.130Z,72.2
2016-12-30T02:56:49.867Z,72.3
2016-12-30T02:58:00.229Z,72.3
2016-12-30T02:59:10.956Z,72.3
2016-12-30T03:00:20.912Z,72.39
2016-12-30T03:01:31.274Z,72.58
2016-12-30T03:33:16.020Z,71.72
2016-12-30T03:34:26.748Z,72.09
2016-12-30T03:35:36.673Z,73.13
2016-12-30T03:36:47.010Z,74.17
2016-12-30T03:37:57.747Z,74.45
2016-12-30T03:39:08.088Z,74.68
2016-12-30T03:40:18.819Z,75.24
2016-12-30T03:41:29.547Z,75.05
2016-12-30T03:42:39.498Z,74.96
2016-12-30T03:43:49.830Z,75.15
2016-12-30T03:45:00.557Z,75.15
2016-12-30T03:46:11.293Z,75.43
2016-12-30T03:47:22.039Z,75.24
2016-12-30T03:48:32.771Z,74.9
2016-12-30T03:49:43.109Z,74.53
2016-12-30T03:50:53.447Z,74.9
2016-12-30T03:52:03.802Z,74.71
2016-12-30T03:53:13.750Z,74.05
2016-12-30T03:54:24.081Z,74.15
2016-12-30T03:55:34.429Z,74.43
2016-12-30T03:56:44.773Z,74.24
2016-12-30T03:57:54.711Z,73.71
2016-12-30T03:59:05.067Z,73.62
2016-12-30T04:00:15.405Z,73.33
2016-12-30T04:01:25.750Z,73.24
2016-12-30T04:02:36.093Z,73.43
2016-12-30T04:03:46.828Z,73.62
2016-12-30T04:04:57.551Z,73.52
2016-12-30T04:06:08.314Z,73.05
2016-12-30T04:07:18.644Z,73.24
2016-12-30T04:08:29.375Z,73.52
2016-12-30T04:09:39.714Z,73.14
2016-12-30T04:10:50.052Z,73.33
2016-12-30T04:12:00.789Z,73.33
2016-12-30T04:13:11.523Z,73.33
2016-12-30T04:14:21.864Z,73.33
2016-12-30T04:15:32.201Z,73.05
2016-12-30T04:16:42.948Z,73.05
2016-12-30T04:17:53.522Z,72.96
2016-12-30T04:19:04.246Z,72.77
2016-12-30T04:20:14.988Z,72.77
2016-12-30T04:21:25.719Z,72.96
2016-12-30T04:22:36.066Z,72.96
2016-12-30T04:23:46.833Z,72.96
2016-12-30T04:24:57.576Z,72.96
2016-12-30T04:26:08.317Z,72.58
2016-12-30T04:27:19.045Z,72.3
2016-12-30T04:28:29.390Z,72.67
2016-12-30T04:29:40.128Z,72.58
2016-12-30T04:30:50.904Z,72.39
2016-12-30T04:32:01.647Z,72.39
2016-12-30T04:33:12.382Z,72.58
2016-12-30T04:34:23.119Z,72.3
2016-12-30T04:35:33.447Z,72.3
2016-12-30T04:36:44.176Z,72.39
2016-12-30T04:37:54.915Z,72.39
2016-12-30T04:39:05.642Z,72.2
2016-12-30T04:40:15.986Z,72.49
2016-12-30T04:41:26.333Z,72.3
2016-12-30T04:42:36.686Z,72.67
2016-12-30T04:43:47.029Z,72.39
2016-12-30T04:44:57.393Z,72.67
2016-12-30T04:46:08.127Z,72.96
2016-12-30T04:47:18.467Z,72.67
2016-12-30T04:48:29.196Z,72.67
2016-12-30T04:49:39.927Z,72.58
2016-12-30T04:50:50.264Z,72.58
2016-12-30T04:52:01.003Z,72.58
2016-12-30T04:53:11.776Z,72.58
2016-12-30T04:54:22.525Z,72.58
2016-12-30T04:55:33.259Z,72.67
2016-12-30T04:56:43.997Z,72.77
2016-12-30T04:57:54.738Z,72.67
2016-12-30T04:59:04.697Z,72.58
2016-12-30T05:00:14.656Z,72.2
2016-12-30T05:01:25.393Z,72.49
2016-12-30T05:02:36.140Z,72.02
2016-12-30T05:03:46.878Z,72.58
2016-12-30T05:04:56.444Z,72.39
2016-12-30T05:06:06.405Z,72.58
2016-12-30T05:07:16.753Z,72.67
2016-12-30T05:08:27.090Z,72.39
2016-12-30T05:09:37.421Z,72.49
2016-12-30T05:10:47.769Z,72.67
2016-12-30T05:11:58.514Z,72.3
2016-12-30T05:13:09.257Z,72.39
2016-12-30T05:14:19.993Z,72.58
2016-12-30T05:15:30.769Z,72.39
2016-12-30T05:16:41.091Z,72.58
2016-12-30T05:17:51.429Z,72.77
2016-12-30T05:19:01.771Z,72.77
2016-12-30T05:20:12.517Z,72.58
2016-12-30T05:21:23.264Z,72.39
2016-12-30T05:22:34.000Z,72.67
2016-12-30T05:23:44.750Z,72.67
2016-12-30T05:24:55.493Z,72.77
2016-12-30T05:26:06.236Z,72.86
2016-12-30T05:27:16.983Z,72.58
2016-12-30T05:28:27.304Z,72.67
2016-12-30T05:29:38.042Z,72.49
2016-12-30T05:30:48.782Z,72.39
2016-12-30T05:31:59.519Z,72.11
2016-12-30T05:33:08.684Z,72.2
2016-12-30T05:34:19.428Z,72.11
2016-12-30T05:35:29.369Z,72.11
2016-12-30T05:36:40.100Z,72.02
2016-12-30T05:37:50.442Z,72.49
2016-12-30T05:39:01.184Z,71.73
2016-12-30T05:40:11.521Z,71.92
2016-12-30T05:41:22.258Z,71.83
2016-12-30T05:42:32.994Z,72.02
2016-12-30T05:43:43.735Z,72.39
2016-12-30T05:44:54.078Z,71.83
2016-12-30T05:46:04.425Z,72.77
2016-12-30T05:47:14.776Z,72.11
2016-12-30T05:48:25.517Z,71.83
2016-12-30T05:49:36.269Z,72.3
2016-12-30T05:50:46.641Z,72.2
2016-12-30T05:51:56.969Z,72.11
2016-12-30T05:53:07.701Z,72.11
2016-12-30T05:54:18.432Z,72.3
2016-12-30T05:55:28.765Z,72.2
2016-12-30T05:56:39.513Z,72.2
2016-12-30T05:57:50.248Z,72.39
2016-12-30T05:59:00.601Z,72.49
2016-12-30T06:00:10.944Z,72.49
2016-12-30T06:01:21.287Z,72.39
2016-12-30T06:02:31.669Z,72.39
2016-12-30T06:03:42.407Z,72.39
2016-12-30T06:04:53.134Z,72.39
2016-12-30T06:06:03.874Z,72.49
2016-12-30T06:07:14.230Z,72.49
2016-12-30T06:08:24.992Z,72.39
2016-12-30T06:09:35.334Z,72.11
2016-12-30T06:10:46.061Z,72.2
2016-12-30T06:11:56.832Z,72.11
2016-12-30T06:13:07.181Z,72.49
2016-12-30T06:14:17.550Z,72.2
2016-12-30T06:15:27.887Z,72.3
2016-12-30T06:16:38.218Z,72.11
2016-12-30T06:17:48.175Z,72.39
2016-12-30T06:18:58.904Z,72.39
2016-12-30T06:20:08.859Z,72.39
2016-12-30T06:21:19.626Z,72.39
2016-12-30T06:22:29.968Z,72.49
2016-12-30T06:23:40.708Z,72.2
2016-12-30T06:24:51.423Z,72.39
2016-12-30T06:26:02.172Z,72.58
2016-12-30T06:27:12.914Z,72.3
2016-12-30T06:28:23.648Z,72.3
2016-12-30T06:29:34.018Z,72.49
2016-12-30T06:30:44.751Z,72.67
2016-12-30T06:31:55.119Z,72.67
2016-12-30T06:33:05.858Z,72.49
2016-12-30T06:34:16.206Z,72.58
2016-12-30T06:35:26.553Z,72.39
2016-12-30T06:36:36.903Z,72.39
2016-12-30T06:37:47.650Z,72.3
2016-12-30T06:38:57.602Z,72.58
2016-12-30T06:40:07.555Z,72.3
2016-12-30T06:41:17.936Z,72.39
2016-12-30T06:42:28.672Z,72.39
2016-12-30T06:43:39.394Z,72.49
2016-12-30T06:44:49.721Z,72.49
2016-12-30T06:46:00.048Z,72.39
2016-12-30T06:47:10.780Z,72.49
2016-12-30T06:48:21.523Z,72.49
2016-12-30T06:49:32.272Z,72.49
2016-12-30T06:50:43.003Z,72.49
2016-12-30T06:51:52.962Z,72.39
2016-12-30T06:53:02.908Z,72.39
2016-12-30T06:54:13.633Z,72.11
2016-12-30T06:55:24.401Z,72.2
2016-12-30T06:56:35.137Z,72.11
2016-12-30T06:57:45.479Z,72.11
2016-12-30T06:58:55.826Z,72.2
2016-12-30T07:00:06.164Z,72.11
2016-12-30T07:01:16.925Z,72.2
2016-12-30T07:02:27.268Z,72.2
2016-12-30T07:03:38.032Z,72.39
2016-12-30T07:04:48.776Z,72.39
2016-12-30T07:05:59.116Z,72.3
2016-12-30T07:07:09.863Z,72.3
2016-12-30T07:08:20.600Z,72.3
2016-12-30T07:09:31.342Z,72.49
2016-12-30T07:10:42.079Z,72.39
2016-12-30T07:11:52.420Z,72.39
2016-12-30T07:13:02.364Z,72.62
2016-12-30T07:14:13.084Z,72.33
2016-12-30T07:15:23.820Z,72.62
2016-12-30T07:16:33.767Z,72.52
2016-12-30T07:17:44.504Z,72.43
2016-12-30T07:18:54.870Z,71.86
2016-12-30T07:20:05.613Z,72.33
2016-12-30T07:21:15.963Z,71.67
2016-12-30T07:22:26.739Z,71.67
2016-12-30T07:23:37.072Z,71.67
2016-12-30T07:24:47.417Z,71.86
2016-12-30T07:25:57.767Z,71.86
2016-12-30T07:27:07.724Z,71.77
2016-12-30T07:28:18.084Z,71.86
2016-12-30T07:29:28.456Z,71.86
2016-12-30T07:30:39.188Z,71.95
2016-12-30T07:31:49.529Z,71.95
2016-12-30T07:32:59.886Z,71.95
2016-12-30T07:34:10.268Z,72.05
2016-12-30T07:35:21.006Z,71.95
2016-12-30T07:36:31.351Z,71.86
2016-12-30T07:37:42.073Z,72.05
2016-12-30T07:38:52.840Z,72.05
2016-12-30T07:40:03.577Z,72.24
2016-12-30T07:41:14.553Z,72.14
2016-12-30T07:42:24.885Z,71.58
2016-12-30T07:43:35.235Z,72.05
2016-12-30T07:44:46.008Z,71.61
2016-12-30T07:45:56.351Z,71.8
2016-12-30T07:47:07.089Z,71.9
2016-12-30T07:48:17.439Z,72.09
2016-12-30T07:49:27.775Z,71.61
2016-12-30T07:50:38.502Z,71.52
2016-12-30T07:51:48.859Z,71.61
2016-12-30T07:52:59.210Z,71.61
2016-12-30T07:54:09.551Z,71.61
2016-12-30T07:55:19.937Z,71.9
2016-12-30T07:56:30.330Z,71.52
2016-12-30T07:57:40.303Z,71.52
2016-12-30T07:58:51.040Z,71.8
2016-12-30T08:00:01.395Z,71.8
2016-12-30T08:01:12.132Z,71.9
2016-12-30T08:02:22.114Z,71.61
2016-12-30T08:03:32.461Z,71.61
2016-12-30T08:04:42.808Z,72.09
2016-12-30T08:05:53.154Z,72.18
2016-12-30T08:07:03.895Z,72.09
2016-12-30T08:08:14.669Z,71.61
2016-12-30T08:09:25.022Z,71.8
2016-12-30T08:10:35.757Z,71.71
2016-12-30T08:11:46.098Z,71.8
2016-12-30T08:12:56.816Z,72.18
2016-12-30T08:14:07.565Z,72.09
2016-12-30T08:15:17.933Z,72.12
2016-12-30T08:16:28.679Z,71.65
2016-12-30T08:17:39.429Z,72.12
2016-12-30T08:18:49.769Z,72.12
2016-12-30T08:20:00.124Z,71.65
2016-12-30T08:21:10.865Z,71.65
2016-12-30T08:22:21.592Z,72.12
2016-12-30T08:23:32.348Z,72.12
2016-12-30T08:24:43.106Z,71.74
2016-12-30T08:25:53.840Z,71.93
2016-12-30T08:27:03.399Z,71.93
2016-12-30T08:28:13.356Z,71.84
2016-12-30T08:29:24.108Z,71.84
2016-12-30T08:30:34.450Z,71.84
2016-12-30T08:31:44.801Z,71.93
2016-12-30T08:32:54.764Z,71.65
2016-12-30T08:34:05.114Z,71.69
2016-12-30T08:35:15.467Z,71.65
2016-12-30T08:36:26.213Z,71.65
2016-12-30T08:37:36.559Z,71.97
2016-12-30T08:38:46.908Z,71.5
2016-12-30T08:39:56.858Z,71.88
2016-12-30T08:41:07.611Z,71.69
2016-12-30T08:42:18.357Z,72.16
2016-12-30T08:43:28.304Z,72.25
2016-12-30T08:44:39.040Z,71.88
2016-12-30T08:45:49.778Z,71.97
2016-12-30T08:47:00.113Z,71.69
2016-12-30T08:48:10.074Z,71.59
2016-12-30T08:49:20.072Z,72.16
2016-12-30T08:50:30.420Z,72.16
2016-12-30T08:51:39.976Z,71.88
2016-12-30T08:52:50.708Z,71.59
2016-12-30T08:54:01.058Z,72.16
2016-12-30T08:55:11.806Z,71.69
2016-12-30T08:56:22.148Z,71.72
2016-12-30T08:57:32.900Z,71.81
2016-12-30T08:58:42.878Z,71.53
2016-12-30T08:59:53.621Z,72.29
2016-12-30T09:01:04.368Z,72.19
2016-12-30T09:02:14.702Z,71.72
2016-12-30T09:03:25.057Z,71.91
2016-12-30T09:04:35.418Z,71.91
2016-12-30T09:05:45.760Z,71.81
2016-12-30T09:06:56.508Z,71.72
2016-12-30T09:08:07.268Z,71.91
2016-12-30T09:09:17.217Z,71.81
2016-12-30T09:10:27.980Z,71.81
2016-12-30T09:11:38.314Z,71.81
2016-12-30T09:12:48.644Z,71.81
2016-12-30T09:13:58.977Z,71.62
2016-12-30T09:15:08.543Z,71.62
2016-12-30T09:16:19.270Z,71.57
2016-12-30T09:17:30.032Z,72.04
2016-12-30T09:18:39.999Z,71.76
2016-12-30T09:19:50.739Z,71.85
2016-12-30T09:21:01.474Z,71.76
2016-12-30T09:22:11.437Z,72.04
2016-12-30T09:23:21.796Z,71.95
2016-12-30T09:24:31.752Z,71.95
2016-12-30T09:25:42.487Z,72.04
2016-12-30T09:26:53.230Z,71.95
2016-12-30T09:28:03.191Z,72.04
2016-12-30T09:29:13.544Z,71.66
2016-12-30T09:30:24.302Z,71.95
2016-12-30T09:31:35.062Z,71.66
2016-12-30T09:32:45.404Z,71.85
2016-12-30T09:33:55.742Z,71.95
2016-12-30T09:35:06.468Z,71.66
2016-12-30T09:36:17.215Z,72.08
2016-12-30T09:37:27.567Z,71.95
2016-12-30T09:38:38.323Z,72.08
2016-12-30T09:39:49.079Z,72.08
2016-12-30T09:40:59.428Z,71.6
2016-12-30T09:42:09.782Z,71.7
2016-12-30T09:43:20.518Z,71.6
2016-12-30T09:44:30.868Z,72.08
2016-12-30T09:45:41.613Z,71.6
2016-12-30T09:46:51.959Z,71.6
2016-12-30T09:48:02.301Z,71.6
2016-12-30T09:49:13.038Z,71.6
2016-12-30T09:50:23.779Z,71.41
2016-12-30T09:51:34.507Z,71.6
2016-12-30T09:52:44.856Z,71.41
2016-12-30T09:53:55.217Z,71.6
2016-12-30T09:55:05.552Z,72.08
2016-12-30T09:56:15.895Z,71.98
2016-12-30T09:57:26.242Z,71.7
2016-12-30T09:58:36.627Z,72.02
2016-12-30T09:59:46.968Z,71.89
2016-12-30T10:00:56.916Z,71.92
2016-12-30T10:02:07.264Z,71.83
2016-12-30T10:03:17.999Z,71.73
2016-12-30T10:04:28.741Z,71.64
2016-12-30T10:05:39.487Z,71.64
2016-12-30T10:06:49.838Z,72.11
2016-12-30T10:08:00.591Z,71.45
2016-12-30T10:09:10.546Z,71.64
2016-12-30T10:10:20.899Z,71.64
2016-12-30T10:11:31.689Z,71.64
2016-12-30T10:12:42.041Z,71.83
2016-12-30T10:13:52.404Z,71.36
2016-12-30T10:15:02.360Z,71.36
2016-12-30T10:16:13.108Z,71.96
2016-12-30T10:17:23.464Z,71.39
2016-12-30T10:18:33.828Z,71.86
2016-12-30T10:19:44.594Z,71.96
2016-12-30T10:20:54.550Z,71.67
2016-12-30T10:22:04.895Z,71.96
2016-12-30T10:23:15.252Z,71.96
2016-12-30T10:24:25.995Z,71.58
2016-12-30T10:25:36.341Z,71.96
2016-12-30T10:26:46.689Z,71.77
2016-12-30T10:27:57.024Z,71.86
2016-12-30T10:29:07.377Z,71.67
2016-12-30T10:30:17.337Z,71.58
2016-12-30T10:31:27.686Z,71.77
2016-12-30T10:32:38.029Z,71.77
2016-12-30T10:33:48.392Z,72.06
2016-12-30T10:34:58.774Z,71.86
2016-12-30T10:36:09.511Z,71.86
2016-12-30T10:37:19.463Z,71.86
2016-12-30T10:38:30.197Z,71.86
2016-12-30T10:39:40.942Z,71.86
2016-12-30T10:40:51.288Z,71.77
2016-12-30T10:42:02.035Z,71.86
2016-12-30T10:43:12.788Z,72.34
2016-12-30T10:44:23.129Z,72.34
2016-12-30T10:45:33.875Z,72.25
2016-12-30T10:46:44.230Z,71.77
2016-12-30T10:47:54.604Z,72.15
2016-12-30T10:49:04.950Z,71.86
2016-12-30T10:50:14.927Z,72.06
2016-12-30T10:51:24.880Z,71.96
2016-12-30T10:52:35.231Z,72.15
2016-12-30T10:53:45.988Z,72.15
2016-12-30T10:54:56.354Z,72.19
2016-12-30T10:56:07.162Z,71.77
2016-12-30T10:57:17.935Z,72.15
2016-12-30T10:58:28.309Z,72.15
2016-12-30T10:59:39.064Z,72.47
2016-12-30T11:00:49.810Z,72.09
2016-12-30T11:02:00.164Z,72.09
2016-12-30T11:03:10.520Z,72.09
2016-12-30T11:04:20.862Z,72
2016-12-30T11:05:31.226Z,72.47
2016-12-30T11:06:41.593Z,71.81
2016-12-30T11:07:51.938Z,72
2016-12-30T11:09:01.881Z,71.9
2016-12-30T11:10:11.842Z,71.84
2016-12-30T11:11:22.614Z,71.84
2016-12-30T11:12:33.351Z,72.22
2016-12-30T11:13:44.088Z,72.03
2016-12-30T11:14:54.425Z,72.13
2016-12-30T11:16:05.160Z,72.22
2016-12-30T11:17:15.108Z,71.94
2016-12-30T11:18:25.059Z,72.03
2016-12-30T11:19:35.804Z,72.13
2016-12-30T11:20:45.377Z,71.84
2016-12-30T11:21:56.148Z,71.84
2016-12-30T11:23:06.909Z,72.03
2016-12-30T11:24:17.256Z,72.22
2016-12-30T11:25:27.219Z,71.75
2016-12-30T11:26:37.573Z,71.75
2016-12-30T11:27:47.933Z,71.75
2016-12-30T11:28:58.282Z,71.46
2016-12-30T11:30:09.024Z,72.16
2016-12-30T11:31:19.000Z,72.03
2016-12-30T11:32:29.382Z,72.13
2016-12-30T11:33:40.134Z,71.56
2016-12-30T11:41:11.493Z,72.13
2016-12-30T11:42:22.259Z,72.22
2016-12-30T11:43:33.005Z,72.13
2016-12-30T11:44:42.952Z,72.16
2016-12-30T11:45:53.302Z,71.84
2016-12-30T11:47:04.049Z,72.22
2016-12-30T11:48:14.803Z,72.32
2016-12-30T11:49:25.551Z,72.26
2016-12-30T11:50:35.513Z,71.97
2016-12-30T11:51:45.480Z,72.16
2016-12-30T11:52:56.261Z,72.26
2016-12-30T11:54:06.873Z,71.97
2016-12-30T11:55:16.844Z,72.26
2016-12-30T11:56:27.592Z,72.16
2016-12-30T11:57:38.332Z,72.35
2016-12-30T11:58:48.679Z,71.69
2016-12-30T11:59:58.237Z,71.5
2016-12-30T12:01:08.591Z,71.69
2016-12-30T12:02:18.549Z,71.78
2016-12-30T12:03:29.312Z,71.59
2016-12-30T12:04:40.065Z,72.07
2016-12-30T12:05:50.414Z,72.16
2016-12-30T12:07:01.187Z,72.16
2016-12-30T12:08:11.570Z,72.26
2016-12-30T12:09:21.921Z,71.97
2016-12-30T12:10:32.695Z,71.97
2016-12-30T12:11:42.658Z,71.97
2016-12-30T12:12:53.005Z,71.97
2016-12-30T12:14:03.419Z,71.97
2016-12-30T12:15:13.767Z,71.88
2016-12-30T12:16:24.138Z,72.45
2016-12-30T12:17:34.897Z,72.16
2016-12-30T12:18:45.635Z,72.55
2016-12-30T12:19:55.997Z,72.45
2016-12-30T12:21:06.757Z,72.45
2016-12-30T12:22:17.517Z,72.55
2016-12-30T12:23:27.475Z,72.45
2016-12-30T12:24:38.245Z,71.91
2016-12-30T12:25:49.014Z,69.29
2016-12-30T12:26:59.755Z,67.55
2016-12-30T12:28:10.507Z,66.22
2016-12-30T12:29:20.483Z,64.47
2016-12-30T12:30:30.039Z,64.12
2016-12-30T12:31:39.992Z,63.67
2016-12-30T12:32:49.972Z,63.99
2016-12-30T12:33:59.928Z,64.5
2016-12-30T12:35:10.278Z,66.44
2016-12-30T12:36:20.650Z,68.1
2016-12-30T12:37:31.426Z,69.78
2016-12-30T12:38:41.776Z,70.95
2016-12-30T12:39:51.729Z,71.52
2016-12-30T12:41:02.095Z,70.28
2016-12-30T12:42:12.465Z,68.7
2016-12-30T12:43:22.423Z,68.35
2016-12-30T12:44:32.813Z,68.16
2016-12-30T12:45:43.168Z,68.79
2016-12-30T12:46:53.940Z,69.71
2016-12-30T12:48:04.724Z,70.95
2016-12-30T12:49:15.492Z,71.39
2016-12-30T12:50:26.254Z,71.58
2016-12-30T12:51:36.620Z,71.64
2016-12-30T12:52:47.387Z,71.93
2016-12-30T12:53:57.757Z,72.12
2016-12-30T12:55:08.106Z,72.56
2016-12-30T12:56:18.492Z,72.56
2016-12-30T12:57:28.844Z,72.56
2016-12-30T12:58:39.216Z,72.37
2016-12-30T12:59:49.589Z,73.03
2016-12-30T13:00:59.574Z,72.9
2016-12-30T13:02:09.560Z,72.71
2016-12-30T13:03:19.921Z,72.62
2016-12-30T13:04:30.659Z,72.42
2016-12-30T13:05:40.656Z,72.71
2016-12-30T13:06:51.408Z,72.62
2016-12-30T13:08:02.194Z,72.62
2016-12-30T13:09:12.554Z,72.58
2016-12-30T13:10:23.309Z,72.58
2016-12-30T13:11:33.699Z,72.39
2016-12-30T13:12:44.475Z,72.49
2016-12-30T13:13:54.442Z,72.86
2016-12-30T13:15:04.787Z,72.49
2016-12-30T13:16:14.748Z,72.58
2016-12-30T13:17:23.925Z,72.49
2016-12-30T13:18:33.880Z,72.39
2016-12-30T13:19:44.618Z,72.96
2016-12-30T13:20:55.355Z,72.96
2016-12-30T13:22:05.720Z,73.25
2016-12-30T13:23:16.479Z,73.15
2016-12-30T13:24:26.830Z,73.15
2016-12-30T13:25:36.785Z,72.96
2016-12-30T13:26:47.141Z,73.34
2016-12-30T13:27:57.131Z,73.06
2016-12-30T13:29:07.502Z,72.86
2016-12-30T13:30:18.122Z,73.06
2016-12-30T13:31:28.464Z,73.06
2016-12-30T13:32:39.209Z,72.92
2016-12-30T13:33:49.562Z,72.92
2016-12-30T13:35:00.307Z,73.21
2016-12-30T13:36:11.089Z,72.92
2016-12-30T13:37:21.056Z,72.92
2016-12-30T13:38:31.827Z,73.02
2016-12-30T13:39:42.179Z,72.83
2016-12-30T13:40:52.922Z,73.11
2016-12-30T13:42:03.265Z,72.74
2016-12-30T13:43:13.234Z,73.02
2016-12-30T13:44:23.630Z,72.92
2016-12-30T13:45:33.967Z,73.3
2016-12-30T13:46:44.329Z,73.21
2016-12-30T13:47:55.085Z,73.27
2016-12-30T13:49:05.450Z,73.55
2016-12-30T13:50:15.807Z,73.93
2016-12-30T13:51:26.151Z,73.27
2016-12-30T13:52:36.505Z,73.55
2016-12-30T13:53:47.271Z,73.84
2016-12-30T13:54:57.615Z,73.18
2016-12-30T13:56:07.984Z,73.74
2016-12-30T13:57:18.348Z,73.74
2016-12-30T13:58:28.705Z,73.55
2016-12-30T13:59:39.462Z,73.65
2016-12-30T14:00:49.825Z,73.55
2016-12-30T14:02:00.645Z,73.55
2016-12-30T14:03:11.394Z,73.74
2016-12-30T14:04:22.164Z,73.93
2016-12-30T14:05:33.141Z,73.84
2016-12-30T14:06:43.888Z,73.55
2016-12-30T14:07:54.265Z,73.99
2016-12-30T14:09:04.646Z,74.08
2016-12-30T14:10:14.627Z,73.8
2016-12-30T14:11:24.984Z,73.99
2016-12-30T14:12:35.336Z,73.8
2016-12-30T14:13:45.317Z,73.9
2016-12-30T14:14:55.295Z,73.99
2016-12-30T14:16:06.062Z,73.9
2016-12-30T14:17:16.423Z,73.9
2016-12-30T14:18:27.174Z,73.76
2016-12-30T14:19:37.922Z,74.05
2016-12-30T14:20:47.890Z,74.62
2016-12-30T14:21:57.849Z,74.33
2016-12-30T14:23:08.604Z,74.62
2016-12-30T14:24:19.352Z,74.71
2016-12-30T14:25:29.707Z,74.62
2016-12-30T14:26:40.074Z,74.43
2016-12-30T14:27:50.838Z,74.62
2016-12-30T14:29:01.832Z,74.58
2016-12-30T14:30:11.792Z,74.68
2016-12-30T14:31:22.163Z,74.96
2016-12-30T14:32:32.537Z,75.05
2016-12-30T14:33:43.268Z,75.05
2016-12-30T14:34:53.600Z,75.05
2016-12-30T14:36:04.341Z,75.05
2016-12-30T14:37:15.073Z,75.05
2016-12-30T14:38:25.845Z,74.96
2016-12-30T14:39:36.190Z,75.05
2016-12-30T14:40:46.939Z,74.77
2016-12-30T14:41:57.694Z,74.68
2016-12-30T14:43:07.655Z,74.68
2016-12-30T14:44:17.608Z,74.64
2016-12-30T14:45:28.342Z,74.64
2016-12-30T14:46:38.692Z,74.64
2016-12-30T14:47:49.079Z,74.64
2016-12-30T14:48:59.862Z,74.83
2016-12-30T14:50:10.606Z,74.64
2016-12-30T14:51:20.568Z,74.83
2016-12-30T14:52:30.924Z,74.54
2016-12-30T14:53:41.667Z,74.54
2016-12-30T14:54:52.018Z,74.54
2016-12-30T14:56:02.391Z,74.45
2016-12-30T14:57:13.124Z,74.64
2016-12-30T14:58:23.859Z,74.35
2016-12-30T14:59:34.615Z,74.45
2016-12-30T15:00:45.378Z,74.35
2016-12-30T15:01:56.105Z,74.35
2016-12-30T15:03:06.456Z,74.51
2016-12-30T15:04:17.203Z,74.26
2016-12-30T15:05:27.546Z,74.32
2016-12-30T15:06:37.905Z,74.41
2016-12-30T15:07:48.253Z,74.32
2016-12-30T15:08:58.609Z,73.88
2016-12-30T15:10:08.972Z,73.94
2016-12-30T15:11:18.951Z,73.56
2016-12-30T15:12:29.724Z,73.37
2016-12-30T15:13:40.467Z,73.84
2016-12-30T15:14:50.813Z,73.65
2016-12-30T15:16:01.582Z,73.46
2016-12-30T15:17:11.542Z,73.37
2016-12-30T15:18:21.518Z,73.75
2016-12-30T15:19:32.274Z,73.65
2016-12-30T15:20:42.246Z,73.84
2016-12-30T15:21:52.606Z,73.56
2016-12-30T15:23:03.341Z,73.65
2016-12-30T15:24:13.692Z,73.84
2016-12-30T15:25:24.438Z,73.84
2016-12-30T15:26:35.186Z,73.84
2016-12-30T15:27:45.929Z,73.75
2016-12-30T15:28:56.679Z,73.65
2016-12-30T15:30:07.033Z,73.56
2016-12-30T15:31:17.396Z,73.84
2016-12-30T15:32:27.762Z,73.75
2016-12-30T15:33:38.528Z,73.84
2016-12-30T15:34:48.884Z,73.84
2016-12-30T15:35:59.657Z,73.75
2016-12-30T15:37:10.402Z,73.75
2016-12-30T15:38:21.149Z,73.8
2016-12-30T15:39:31.509Z,73.8
2016-12-30T15:40:41.870Z,73.71
2016-12-30T15:41:52.254Z,73.61
2016-12-30T15:43:03.005Z,73.43
2016-12-30T15:44:13.384Z,73.61
2016-12-30T15:45:23.361Z,73.24
2016-12-30T15:46:33.731Z,73.43
2016-12-30T15:47:44.088Z,73.43